»·PEaware :: WAT3512 KNYL-KTUS

WAT3512 :: KNYL-KTUS

FLIGHT INFORMATION

Flight Status: Arrived
Operator:
Walker Air Transport
More flights by this operator :: More flights under this callsign
Pilot: Richard A. (43314)
Aircraft: EMBRAER PHENOM 300
(E55P)
More flights by this aircraft type
Origin: KNYL Yuma MCAS/Yuma Intl
United States
Destination: KTUS Tucson Intl
United States
More flights between these airports :: More routes between these airports
Route: CARGO1 BZA J2 GBN DINGO5
File this flight plan on PilotEdge
Remarks: RMK / SIMBRIEF
Altitude:
(Current/Filed)
29,000ft
Speed:
(Current/Filed)
431kts
Departed: 09-Sep-23 07:54 PM
Arrived: 09-Sep-23 08:47 PM
Distance/Time
Traveled:
188nm/0:53
Distance/Time
To Go:
Arrived

Flight Plot

Page will automatically refresh every two minutes.

Flight plan parsing failed; only flown route is shown


Map Options




Map Legend


Flown Route
Filed Route
Departure Airport
Arrival Airport
Navaid (VOR, NDB)
Fix

Horizontal Profiles

Position Reports

Time Latitude Longitude Heading Altitude Ground
Speed
09-Sep-23 19:16 32.660556 -114.609735 0 191ft 0kts
09-Sep-23 19:17 32.660556 -114.609735 0 191ft 0kts
09-Sep-23 19:18 32.660556 -114.609735 0 191ft 0kts
09-Sep-23 19:19 32.660556 -114.609735 0 191ft 0kts
09-Sep-23 19:20 32.660556 -114.609735 0 191ft 0kts
09-Sep-23 19:21 32.660556 -114.609735 0 191ft 0kts
09-Sep-23 19:22 32.660556 -114.609735 0 191ft 0kts
09-Sep-23 19:23 32.660556 -114.609735 0 191ft 0kts
09-Sep-23 19:24 32.660556 -114.609735 0 191ft 0kts
09-Sep-23 19:25 32.660556 -114.609735 0 191ft 0kts
09-Sep-23 19:26 32.660556 -114.609735 0 191ft 0kts
09-Sep-23 19:27 32.660556 -114.609735 0 191ft 0kts
09-Sep-23 19:28 32.660556 -114.609735 0 191ft 0kts
09-Sep-23 19:29 32.660556 -114.609735 0 191ft 0kts
09-Sep-23 19:30 32.660556 -114.609735 0 191ft 0kts
09-Sep-23 19:31 32.660556 -114.609735 0 191ft 0kts
09-Sep-23 19:32 32.660556 -114.609735 0 191ft 0kts
09-Sep-23 19:33 32.660556 -114.609735 0 191ft 0kts
09-Sep-23 19:34 32.660556 -114.609735 0 191ft 0kts
09-Sep-23 19:35 32.660556 -114.609735 0 191ft 0kts
09-Sep-23 19:36 32.660556 -114.609735 0 191ft 0kts
09-Sep-23 19:37 32.660556 -114.609735 0 191ft 0kts
09-Sep-23 19:38 32.660556 -114.609735 0 191ft 0kts
09-Sep-23 19:39 32.660556 -114.609735 0 191ft 0kts
09-Sep-23 19:40 32.660556 -114.609735 0 191ft 0kts
09-Sep-23 19:41 32.660556 -114.609735 0 191ft 0kts
09-Sep-23 19:42 32.660556 -114.609735 0 191ft 0kts
09-Sep-23 19:43 32.660556 -114.609735 0 191ft 0kts
09-Sep-23 19:44 32.660556 -114.609735 0 191ft 0kts
09-Sep-23 19:45 32.660556 -114.609735 0 191ft 0kts
09-Sep-23 19:46 32.660622 -114.609562 122 191ft 4kts
09-Sep-23 19:47 32.658985 -114.608375 88 189ft 9kts
09-Sep-23 19:48 32.659843 -114.606238 46 191ft 8kts
09-Sep-23 19:49 32.659955 -114.604857 89 191ft 0kts
09-Sep-23 19:50 32.659955 -114.604857 89 191ft 0kts
09-Sep-23 19:51 32.659955 -114.604857 89 191ft 0kts
09-Sep-23 19:52 32.659960 -114.604365 88 191ft 6kts
09-Sep-23 19:53 32.655373 -114.608093 225 188ft 105kts
09-Sep-23 19:54 32.618122 -114.620071 112 3805ft 192kts
09-Sep-23 19:55 32.657757 -114.601449 350 5373ft 199kts
09-Sep-23 19:56 32.717071 -114.605902 1 8913ft 228kts
09-Sep-23 19:57 32.779859 -114.569825 71 11891ft 306kts
09-Sep-23 19:58 32.770448 -114.469254 88 15984ft 323kts
09-Sep-23 19:59 32.771425 -114.359080 89 19233ft 355kts
09-Sep-23 20:00 32.772987 -114.235452 89 21854ft 388kts
09-Sep-23 20:01 32.774473 -114.105119 88 24111ft 408kts
09-Sep-23 20:03 32.776563 -113.965891 82 24142ft 436kts
09-Sep-23 20:04 32.797591 -113.821129 79 24152ft 453kts
09-Sep-23 20:05 32.818475 -113.674594 79 24165ft 447kts
09-Sep-23 20:06 32.839413 -113.526519 79 24177ft 456kts
09-Sep-23 20:07 32.859970 -113.379703 79 24149ft 449kts
09-Sep-23 20:08 32.880270 -113.233641 80 24155ft 448kts
09-Sep-23 20:09 32.900328 -113.087899 80 24162ft 447kts
09-Sep-23 20:10 32.920271 -112.941743 80 24165ft 448kts
09-Sep-23 20:11 32.939996 -112.795747 80 24165ft 448kts
09-Sep-23 20:12 32.947476 -112.649797 112 24161ft 447kts
09-Sep-23 20:13 32.895270 -112.515550 115 23905ft 451kts
09-Sep-23 20:14 32.846269 -112.388406 115 22477ft 399kts
09-Sep-23 20:15 32.801969 -112.273937 116 21060ft 368kts
09-Sep-23 20:16 32.760304 -112.166640 117 19756ft 351kts
09-Sep-23 20:17 32.718548 -112.059461 117 18463ft 357kts
09-Sep-23 20:18 32.677877 -111.955357 117 16854ft 339kts
09-Sep-23 20:19 32.640224 -111.859219 117 15282ft 307kts
09-Sep-23 20:20 32.605835 -111.771747 116 14233ft 282kts
09-Sep-23 20:21 32.573390 -111.689333 116 13004ft 271kts
09-Sep-23 20:22 32.539979 -111.614737 128 12749ft 241kts
09-Sep-23 20:23 32.501279 -111.553414 127 12739ft 230kts
09-Sep-23 20:24 32.462687 -111.492309 127 11907ft 234kts
09-Sep-23 20:25 32.418373 -111.422544 124 8333ft 290kts
09-Sep-23 20:26 32.372968 -111.358717 134 7350ft 216kts
09-Sep-23 20:27 32.332851 -111.313638 134 7354ft 185kts
09-Sep-23 20:27 32.302040 -111.279605 134 7390ft 180kts
09-Sep-23 20:29 32.258795 -111.231685 134 7374ft 182kts
09-Sep-23 20:30 32.221899 -111.191338 134 7372ft 179kts
09-Sep-23 20:31 32.185275 -111.151127 134 7362ft 178kts
09-Sep-23 20:32 32.149132 -111.111062 134 7368ft 178kts
09-Sep-23 20:32 32.118872 -111.077859 133 7375ft 177kts
09-Sep-23 20:33 32.082586 -111.038566 133 7361ft 176kts
09-Sep-23 20:34 32.046888 -110.999151 134 7368ft 176kts
09-Sep-23 20:36 32.002859 -110.955828 141 7364ft 176kts
09-Sep-23 20:37 31.963896 -110.923047 127 7355ft 168kts
09-Sep-23 20:37 31.950772 -110.880226 102 6910ft 170kts
09-Sep-23 20:38 31.938007 -110.826861 103 6223ft 167kts
09-Sep-23 20:39 31.954595 -110.783284 43 5721ft 142kts
09-Sep-23 20:40 31.984401 -110.785826 317 5241ft 139kts
09-Sep-23 20:42 32.014419 -110.820214 316 4826ft 115kts
09-Sep-23 20:42 32.034810 -110.844062 315 4513ft 135kts
09-Sep-23 20:43 32.060755 -110.874827 316 3812ft 126kts
09-Sep-23 20:44 32.084169 -110.902284 315 3164ft 113kts
09-Sep-23 20:45 32.106317 -110.927827 316 2634ft 98kts
09-Sep-23 20:46 32.120462 -110.944462 317 2586ft 40kts
09-Sep-23 20:47 32.123905 -110.946968 48 2575ft 7kts
09-Sep-23 20:48 32.125111 -110.945937 136 2574ft 7kts
09-Sep-23 20:49 32.124513 -110.943595 136 2578ft 8kts
09-Sep-23 20:50 32.123947 -110.943118 146 2580ft 0kts

Navigation Log

Ident Type
Flight plan parsing failed, navigation log unavailable